createdAt,value
2018-07-25T00:01:40.789Z,9.73
2018-07-25T00:04:09.667Z,9.37
2018-07-25T00:06:38.563Z,8.40
2018-07-25T00:09:08.400Z,10.83
2018-07-25T00:11:37.258Z,8.17
2018-07-25T00:14:06.297Z,8.43
2018-07-25T00:16:35.814Z,9.63
2018-07-25T00:19:04.990Z,10.37
2018-07-25T00:21:35.952Z,10.47
2018-07-25T00:24:04.847Z,8.87
2018-07-25T00:26:39.753Z,8.30
2018-07-25T00:29:08.627Z,9.40
2018-07-25T00:31:37.536Z,9.53
2018-07-25T00:34:06.531Z,10.20
2018-07-25T00:36:51.645Z,8.47
2018-07-25T00:39:20.596Z,9.93
2018-07-25T00:41:49.470Z,9.77
2018-07-25T00:44:18.351Z,9.70
2018-07-25T00:46:47.226Z,10.27
2018-07-25T00:49:16.158Z,9.93
2018-07-25T00:51:45.002Z,9.23
2018-07-25T00:54:13.871Z,9.50
2018-07-25T00:56:42.776Z,9.60
2018-07-25T00:59:13.759Z,11.17
2018-07-25T01:01:42.661Z,12.70
2018-07-25T01:04:16.747Z,10.07
2018-07-25T01:06:45.620Z,10.07
2018-07-25T01:15:12.543Z,9.87
2018-07-25T01:17:41.503Z,10.27
2018-07-25T01:20:12.428Z,9.30
2018-07-25T01:22:41.336Z,9.40
2018-07-25T01:28:07.418Z,10.07
2018-07-25T01:30:36.422Z,12.03
2018-07-25T01:33:05.310Z,12.03
2018-07-25T01:35:34.219Z,12.03
2018-07-25T01:38:03.102Z,10.07
2018-07-25T01:40:31.992Z,9.90
2018-07-25T01:43:00.886Z,11.60
2018-07-25T01:45:29.870Z,10.30
2018-07-25T01:47:58.756Z,11.13
2018-07-25T01:50:36.017Z,9.30
2018-07-25T01:53:04.909Z,10.40
2018-07-25T01:55:33.772Z,12.53
2018-07-25T01:58:02.717Z,10.13
2018-07-25T02:00:31.569Z,10.13
2018-07-25T02:03:00.458Z,10.47
2018-07-25T02:05:29.334Z,10.40
2018-07-25T02:07:58.208Z,9.97
2018-07-25T02:10:27.244Z,9.97
2018-07-25T02:12:56.185Z,11.60
2018-07-25T02:15:35.303Z,10.53
2018-07-25T02:18:04.242Z,11.23
2018-07-25T02:20:33.118Z,9.63
2018-07-25T02:23:02.021Z,9.37
2018-07-25T02:25:30.895Z,10.77
2018-07-25T02:28:01.942Z,9.10
2018-07-25T02:30:30.797Z,10.70
2018-07-25T02:33:00.787Z,9.13
2018-07-25T02:35:29.703Z,9.77
2018-07-25T02:37:58.693Z,9.43
2018-07-25T02:40:27.584Z,9.03
2018-07-25T02:43:16.934Z,8.90
2018-07-25T02:45:45.809Z,11.53
2018-07-25T02:48:15.509Z,10.33
2018-07-25T02:50:44.774Z,9.07
2018-07-25T02:53:14.017Z,13.57
2018-07-25T02:55:42.931Z,9.57
2018-07-25T02:58:11.781Z,9.20
2018-07-25T03:00:40.658Z,9.00
2018-07-25T03:03:09.518Z,9.00
2018-07-25T03:05:38.408Z,12.93
2018-07-25T03:08:07.324Z,10.57
2018-07-25T03:10:36.625Z,12.43
2018-07-25T03:13:05.524Z,12.60
2018-07-25T03:15:41.740Z,10.50
2018-07-25T03:18:10.616Z,10.23
2018-07-25T03:20:39.507Z,11.27
2018-07-25T03:23:08.859Z,11.13
2018-07-25T03:25:37.697Z,8.97
2018-07-25T03:28:06.885Z,10.30
2018-07-25T03:30:36.827Z,13.20
2018-07-25T03:33:05.818Z,18.80
2018-07-25T03:35:39.224Z,10.63
2018-07-25T03:38:09.163Z,10.90
2018-07-25T03:40:38.110Z,11.83
2018-07-25T03:43:07.069Z,9.93
2018-07-25T03:45:38.066Z,11.67
2018-07-25T03:48:11.841Z,11.70
2018-07-25T03:50:43.863Z,12.03
2018-07-25T03:53:20.912Z,11.23
2018-07-25T03:58:43.644Z,10.93
2018-07-25T04:01:12.560Z,14.00
2018-07-25T04:03:41.458Z,10.20
2018-07-25T04:06:31.324Z,11.43
2018-07-25T04:09:00.185Z,12.57
2018-07-25T04:11:29.178Z,10.30
2018-07-25T04:13:58.160Z,15.13
2018-07-25T04:16:38.650Z,13.13
2018-07-25T04:19:08.013Z,10.87
2018-07-25T04:21:36.975Z,10.87
2018-07-25T04:24:06.032Z,13.97
2018-07-25T04:26:41.720Z,10.70
2018-07-25T04:29:10.913Z,11.47
2018-07-25T04:31:40.304Z,13.13
2018-07-25T04:34:19.336Z,10.80
2018-07-25T04:36:54.681Z,11.97
2018-07-25T04:39:26.022Z,13.77
2018-07-25T04:41:59.946Z,11.93
2018-07-25T04:44:35.203Z,12.80
2018-07-25T04:47:04.507Z,14.57
2018-07-25T04:49:33.855Z,12.17
2018-07-25T04:52:03.427Z,15.60
2018-07-25T04:54:36.229Z,13.07
2018-07-25T04:57:10.686Z,12.50
2018-07-25T04:59:39.878Z,12.97
2018-07-25T05:02:10.818Z,12.63
2018-07-25T05:04:40.157Z,12.60
2018-07-25T05:07:10.593Z,13.43
2018-07-25T05:09:39.844Z,15.97
2018-07-25T05:12:09.459Z,12.53
2018-07-25T05:14:39.901Z,17.23
2018-07-25T05:17:12.491Z,16.90
2018-07-25T05:19:46.405Z,14.30
2018-07-25T05:22:15.480Z,13.13
2018-07-25T05:24:44.373Z,16.67
2018-07-25T05:27:25.747Z,13.63
2018-07-25T05:30:15.592Z,15.50
2018-07-25T05:32:44.363Z,14.83
2018-07-25T05:35:16.419Z,14.00
2018-07-25T05:40:43.058Z,16.37
2018-07-25T05:43:11.963Z,15.40
2018-07-25T05:45:40.869Z,18.23
2018-07-25T05:48:28.049Z,18.50
2018-07-25T05:50:59.000Z,17.43
2018-07-25T05:53:28.047Z,35.30
2018-07-25T05:58:50.421Z,26.00
2018-07-25T06:01:19.292Z,19.03
2018-07-25T06:03:48.207Z,20.53
2018-07-25T06:06:20.538Z,20.27
2018-07-25T06:08:52.681Z,20.77
2018-07-25T06:11:22.663Z,18.47
2018-07-25T06:16:57.808Z,17.60
2018-07-25T06:19:27.755Z,15.47
2018-07-25T06:21:58.682Z,18.80
2018-07-25T06:24:27.696Z,17.47
2018-07-25T06:26:56.889Z,15.63
2018-07-25T06:29:29.768Z,15.30
2018-07-25T06:31:58.750Z,16.63
2018-07-25T06:34:29.879Z,14.47
2018-07-25T06:37:19.475Z,15.03
2018-07-25T06:39:49.459Z,14.87
2018-07-25T06:42:23.632Z,12.97
2018-07-25T06:44:53.570Z,15.80
2018-07-25T06:47:29.828Z,15.17
2018-07-25T06:50:03.489Z,16.17
2018-07-25T06:52:32.553Z,14.23
2018-07-25T06:55:01.490Z,13.57
2018-07-25T06:57:30.437Z,17.80
2018-07-25T07:00:00.585Z,18.43
2018-07-25T07:02:29.446Z,13.77
2018-07-25T07:04:58.485Z,17.73
2018-07-25T07:07:27.353Z,16.13
2018-07-25T07:09:56.360Z,18.63
2018-07-25T07:12:25.244Z,17.70
2018-07-25T07:15:14.316Z,17.70
2018-07-25T07:17:50.634Z,16.23
2018-07-25T07:20:31.952Z,14.87
2018-07-25T07:23:00.848Z,15.23
2018-07-25T07:25:29.760Z,14.37
2018-07-25T07:27:58.679Z,15.87
2018-07-25T07:30:27.614Z,14.90
2018-07-25T07:32:56.525Z,16.00
2018-07-25T07:35:25.398Z,11.77
2018-07-25T07:37:54.304Z,12.77
2018-07-25T07:40:23.376Z,15.40
2018-07-25T07:42:52.318Z,15.67
2018-07-25T07:45:21.208Z,11.30
2018-07-25T07:47:50.082Z,11.97
2018-07-25T07:50:25.359Z,11.10
2018-07-25T07:52:54.255Z,11.43
2018-07-25T07:55:26.678Z,13.13
2018-07-25T07:58:12.440Z,12.40
2018-07-25T08:00:41.336Z,12.67
2018-07-25T08:03:10.269Z,12.00
2018-07-25T08:05:39.155Z,15.73
2018-07-25T08:08:08.044Z,14.97
2018-07-25T08:10:38.105Z,13.60
2018-07-25T08:13:18.143Z,14.30
2018-07-25T08:15:54.980Z,11.27
2018-07-25T08:18:23.866Z,16.07
2018-07-25T08:20:52.738Z,15.63
2018-07-25T08:23:21.653Z,15.20
2018-07-25T08:25:50.660Z,14.53
2018-07-25T08:28:26.639Z,10.60
2018-07-25T08:31:02.604Z,16.53
2018-07-25T08:33:31.496Z,11.77
2018-07-25T08:36:00.410Z,15.63
2018-07-25T08:38:38.041Z,14.03
2018-07-25T08:41:07.143Z,21.07
2018-07-25T08:43:37.362Z,19.07
2018-07-25T08:46:07.487Z,19.63
2018-07-25T08:48:36.658Z,19.00
2018-07-25T08:51:05.610Z,14.33
2018-07-25T08:53:42.667Z,11.50
2018-07-25T08:56:11.530Z,17.10
2018-07-25T08:58:40.422Z,16.83
2018-07-25T09:01:25.610Z,18.23
2018-07-25T09:03:54.487Z,17.43
2018-07-25T09:06:23.395Z,13.67
2018-07-25T09:08:52.345Z,14.43
2018-07-25T09:11:26.487Z,23.90
2018-07-25T09:13:55.965Z,18.30
2018-07-25T09:16:29.357Z,14.83
2018-07-25T09:18:58.235Z,15.87
2018-07-25T09:21:27.150Z,16.07
2018-07-25T09:24:00.382Z,19.70
2018-07-25T09:26:29.271Z,23.63
2018-07-25T09:28:58.153Z,21.20
2018-07-25T09:31:27.037Z,24.00
2018-07-25T09:33:56.044Z,18.57
2018-07-25T09:36:38.108Z,18.70
2018-07-25T09:39:09.272Z,15.40
2018-07-25T09:41:38.187Z,13.93
2018-07-25T09:44:07.094Z,14.10
2018-07-25T09:46:36.207Z,19.93
2018-07-25T09:49:07.204Z,18.90
2018-07-25T09:51:36.169Z,13.47
2018-07-25T09:54:05.104Z,14.97
2018-07-25T09:56:33.981Z,14.37
2018-07-25T09:59:02.907Z,13.97
2018-07-25T10:01:44.633Z,14.07
2018-07-25T10:04:20.931Z,12.70
2018-07-25T10:06:49.846Z,9.37
2018-07-25T10:09:18.733Z,11.30
2018-07-25T10:12:02.429Z,10.83
2018-07-25T10:14:45.118Z,8.63
2018-07-25T10:17:17.023Z,9.60
2018-07-25T10:19:45.889Z,11.03
2018-07-25T10:22:14.754Z,10.07
2018-07-25T10:24:43.666Z,12.17
2018-07-25T10:27:12.557Z,8.80
2018-07-25T10:30:00.184Z,15.33
2018-07-25T10:32:47.950Z,14.70
2018-07-25T10:35:18.869Z,12.23
2018-07-25T10:41:05.480Z,13.67
2018-07-25T10:43:38.681Z,9.57
2018-07-25T10:46:09.741Z,13.20
2018-07-25T10:48:38.807Z,10.90
2018-07-25T10:54:12.643Z,8.27
2018-07-25T10:56:42.584Z,8.50
2018-07-25T10:59:14.077Z,7.90
2018-07-25T11:01:47.227Z,10.63
2018-07-25T11:04:16.206Z,12.17
2018-07-25T11:06:50.446Z,7.53
2018-07-25T11:09:20.990Z,10.83
2018-07-25T11:11:51.353Z,7.53
2018-07-25T11:14:24.447Z,7.67
2018-07-25T11:16:54.435Z,9.87
2018-07-25T11:19:43.228Z,7.73
2018-07-25T11:22:14.192Z,7.97
2018-07-25T11:24:44.107Z,9.20
2018-07-25T11:27:13.093Z,8.50
2018-07-25T11:29:46.178Z,8.97
2018-07-25T11:32:15.325Z,8.07
2018-07-25T11:34:46.367Z,8.67
2018-07-25T11:37:29.451Z,7.53
2018-07-25T11:40:04.306Z,7.23
2018-07-25T11:42:40.350Z,9.03
2018-07-25T11:45:16.777Z,10.17
2018-07-25T11:47:45.835Z,8.50
2018-07-25T11:50:14.847Z,7.67
2018-07-25T11:52:43.835Z,8.30
2018-07-25T11:55:16.171Z,7.50
2018-07-25T11:57:45.113Z,7.97
2018-07-25T12:00:15.055Z,10.07
2018-07-25T12:02:44.319Z,7.30
2018-07-25T12:05:13.510Z,9.33
2018-07-25T12:07:42.475Z,7.73
2018-07-25T12:10:12.382Z,8.30
2018-07-25T12:12:47.304Z,8.17
2018-07-25T12:15:23.062Z,7.63
2018-07-25T12:17:55.741Z,7.43
2018-07-25T12:20:25.743Z,7.57
2018-07-25T12:22:56.720Z,7.53
2018-07-25T12:25:29.117Z,8.40
2018-07-25T12:27:59.101Z,7.83
2018-07-25T12:30:29.214Z,7.17
2018-07-25T12:32:58.214Z,7.27
2018-07-25T12:35:28.136Z,7.53
2018-07-25T12:37:57.098Z,7.70
2018-07-25T12:40:26.277Z,8.00
2018-07-25T12:42:57.379Z,8.53
2018-07-25T12:45:26.268Z,8.30
2018-07-25T12:48:02.200Z,6.93
2018-07-25T12:50:31.248Z,7.20
2018-07-25T12:53:04.083Z,7.20
2018-07-25T12:55:33.120Z,7.80
2018-07-25T12:58:14.460Z,8.00
2018-07-25T13:00:44.747Z,7.70
2018-07-25T13:03:13.664Z,7.60
2018-07-25T13:05:44.623Z,8.40
2018-07-25T13:08:13.569Z,8.50
2018-07-25T13:10:43.523Z,7.50
2018-07-25T13:13:13.460Z,9.70
2018-07-25T13:15:42.713Z,8.90
2018-07-25T13:18:11.615Z,7.13
2018-07-25T13:20:40.569Z,8.00
2018-07-25T13:23:13.441Z,7.00
2018-07-25T13:25:45.507Z,7.67
2018-07-25T13:28:14.472Z,7.87
2018-07-25T13:30:46.747Z,7.50
2018-07-25T13:33:15.935Z,7.60
2018-07-25T13:35:44.990Z,7.87
2018-07-25T13:38:14.015Z,7.47
2018-07-25T13:40:43.068Z,9.83
2018-07-25T13:43:12.112Z,7.30
2018-07-25T13:45:42.441Z,7.60
2018-07-25T13:51:21.976Z,7.20
2018-07-25T13:53:53.510Z,8.00
2018-07-25T13:56:23.591Z,6.97
2018-07-25T13:58:52.510Z,8.23
2018-07-25T14:01:24.950Z,10.33
2018-07-25T14:03:55.914Z,7.20
2018-07-25T14:06:25.015Z,8.90
2018-07-25T14:08:58.420Z,6.70
2018-07-25T14:11:33.354Z,7.47
2018-07-25T14:14:18.553Z,7.43
2018-07-25T14:16:51.722Z,7.57
2018-07-25T14:19:20.774Z,7.37
2018-07-25T14:21:49.790Z,7.80
2018-07-25T14:24:18.784Z,11.90
2018-07-25T14:26:55.279Z,7.10
2018-07-25T14:29:29.334Z,7.07
2018-07-25T14:31:58.253Z,6.93
2018-07-25T14:34:28.375Z,7.77
2018-07-25T14:36:58.408Z,9.33
2018-07-25T14:39:27.321Z,7.77
2018-07-25T14:42:11.044Z,8.43
2018-07-25T14:44:45.426Z,10.70
2018-07-25T14:47:14.499Z,9.60
2018-07-25T14:49:48.188Z,12.43
2018-07-25T14:52:20.697Z,8.27
2018-07-25T14:54:49.678Z,7.97
2018-07-25T14:57:19.679Z,7.37
2018-07-25T14:59:52.766Z,7.50
2018-07-25T15:02:22.765Z,9.73
2018-07-25T15:07:50.520Z,10.70
2018-07-25T15:10:21.077Z,10.63
2018-07-25T15:12:57.818Z,7.80
2018-07-25T15:15:28.313Z,9.23
2018-07-25T15:17:58.263Z,11.73
2018-07-25T15:20:29.144Z,12.03
2018-07-25T15:22:59.062Z,9.33
2018-07-25T15:25:31.464Z,6.93
2018-07-25T15:28:00.469Z,6.13
2018-07-25T15:30:30.368Z,6.30
2018-07-25T15:33:00.350Z,5.90
2018-07-25T15:35:29.507Z,6.00
2018-07-25T15:37:58.462Z,6.80
2018-07-25T15:40:38.560Z,6.63
2018-07-25T15:43:14.426Z,6.20
2018-07-25T15:45:45.545Z,5.47
2018-07-25T15:48:14.509Z,5.50
2018-07-25T15:50:44.534Z,5.90
2018-07-25T15:53:14.572Z,5.90
2018-07-25T15:55:43.588Z,5.80
2018-07-25T15:58:19.113Z,5.83
2018-07-25T16:00:51.622Z,6.17
2018-07-25T16:03:24.168Z,6.50
2018-07-25T16:05:53.120Z,7.57
2018-07-25T16:08:22.610Z,9.63
2018-07-25T16:10:53.694Z,8.17
2018-07-25T16:13:23.896Z,8.63
2018-07-25T16:15:54.969Z,8.67
2018-07-25T16:18:27.936Z,9.03
2018-07-25T16:21:19.570Z,8.80
2018-07-25T16:23:49.306Z,8.93
2018-07-25T16:26:19.619Z,9.07
2018-07-25T16:28:48.962Z,8.23
2018-07-25T16:31:24.830Z,8.90
2018-07-25T16:33:54.756Z,8.97
2018-07-25T16:36:25.700Z,9.10
2018-07-25T16:39:03.055Z,8.90
2018-07-25T16:41:34.023Z,9.23
2018-07-25T16:44:07.800Z,10.80
2018-07-25T16:46:38.755Z,10.63
2018-07-25T16:49:09.696Z,9.90
2018-07-25T16:51:42.567Z,8.83
2018-07-25T16:54:15.364Z,13.03
2018-07-25T16:56:47.353Z,9.33
2018-07-25T16:59:21.920Z,11.83
2018-07-25T17:01:50.852Z,14.00
2018-07-25T17:04:23.238Z,11.37
2018-07-25T17:06:57.876Z,10.50
2018-07-25T17:09:30.148Z,8.57
2018-07-25T17:12:08.624Z,9.43
2018-07-25T17:14:42.316Z,11.00
2018-07-25T17:17:13.156Z,11.07
2018-07-25T17:19:47.268Z,11.50
2018-07-25T17:22:23.903Z,9.60
2018-07-25T17:24:58.230Z,13.60
2018-07-25T17:27:30.361Z,10.10
2018-07-25T17:30:02.490Z,11.40
2018-07-25T17:32:36.878Z,10.80
2018-07-25T17:35:16.456Z,12.80
2018-07-25T17:38:02.124Z,9.87
2018-07-25T17:40:35.028Z,9.50
2018-07-25T17:43:04.918Z,8.30
2018-07-25T17:45:33.968Z,7.93
2018-07-25T17:48:08.729Z,8.37
2018-07-25T17:50:38.832Z,9.67
2018-07-25T17:53:08.781Z,8.53
2018-07-25T17:55:44.798Z,7.67
2018-07-25T17:58:15.692Z,7.70
2018-07-25T18:00:49.659Z,7.50
2018-07-25T18:03:24.197Z,7.10
2018-07-25T18:05:55.103Z,7.80
2018-07-25T18:08:27.946Z,6.97
2018-07-25T18:11:01.998Z,7.00
2018-07-25T18:13:43.527Z,6.87
2018-07-25T18:16:13.622Z,9.17
2018-07-25T18:18:46.065Z,9.27
2018-07-25T18:21:15.033Z,8.50
2018-07-25T18:23:43.931Z,7.73
2018-07-25T18:26:16.902Z,7.70
2018-07-25T18:28:45.778Z,7.37
2018-07-25T18:31:15.058Z,7.63
2018-07-25T18:33:44.413Z,7.37
2018-07-25T18:36:15.584Z,6.90
2018-07-25T18:38:45.973Z,7.03
2018-07-25T18:41:18.727Z,6.73
2018-07-25T18:43:47.657Z,7.73
2018-07-25T18:46:28.457Z,7.43
2018-07-25T18:49:05.905Z,7.90
2018-07-25T18:51:38.073Z,13.37
2018-07-25T18:54:14.800Z,6.93
2018-07-25T18:56:44.818Z,6.87
2018-07-25T18:59:17.662Z,7.50
2018-07-25T19:01:56.352Z,8.03
2018-07-25T19:04:29.075Z,7.90
2018-07-25T19:06:58.346Z,7.87
2018-07-25T19:09:27.302Z,7.83
2018-07-25T19:11:56.266Z,10.03
2018-07-25T19:14:36.726Z,8.13
2018-07-25T19:17:06.764Z,7.87
2018-07-25T19:19:40.345Z,7.77
2018-07-25T19:22:09.323Z,7.80
2018-07-25T19:24:39.272Z,7.83
2018-07-25T19:27:18.085Z,11.40
2018-07-25T19:29:49.007Z,7.70
2018-07-25T19:32:17.958Z,7.20
2018-07-25T19:34:50.785Z,7.47
2018-07-25T19:37:22.917Z,7.30
2018-07-25T19:39:57.283Z,7.37
2018-07-25T19:42:38.611Z,7.23
2018-07-25T19:45:09.125Z,8.60
2018-07-25T19:47:44.869Z,7.30
2018-07-25T19:50:18.962Z,7.73
2018-07-25T19:52:53.583Z,8.77
2018-07-25T19:55:34.831Z,6.50
2018-07-25T19:58:08.983Z,7.10
2018-07-25T20:00:37.949Z,7.57
2018-07-25T20:03:21.190Z,6.90
2018-07-25T20:06:01.696Z,7.43
2018-07-25T20:08:31.255Z,9.30
2018-07-25T20:11:00.743Z,7.33
2018-07-25T20:13:32.407Z,7.47
2018-07-25T20:18:55.824Z,8.00
2018-07-25T20:21:28.581Z,7.17
2018-07-25T20:24:03.463Z,7.07
2018-07-25T20:26:35.910Z,7.07
2018-07-25T20:29:06.108Z,6.93
2018-07-25T20:31:37.197Z,6.97
2018-07-25T20:34:08.119Z,6.93
2018-07-25T20:36:39.197Z,6.90
2018-07-25T20:39:10.286Z,8.30
2018-07-25T20:41:41.782Z,6.80
2018-07-25T20:44:18.320Z,8.40
2018-07-25T20:46:49.381Z,7.87
2018-07-25T20:49:24.192Z,8.03
2018-07-25T20:51:53.083Z,6.80
2018-07-25T20:54:24.012Z,10.97
2018-07-25T20:56:58.469Z,7.33
2018-07-25T20:59:28.386Z,7.37
2018-07-25T21:02:01.598Z,7.90
2018-07-25T21:04:30.523Z,8.00
2018-07-25T21:06:59.513Z,7.63
2018-07-25T21:09:41.478Z,7.90
2018-07-25T21:12:27.665Z,7.83
2018-07-25T21:15:00.445Z,7.27
2018-07-25T21:17:37.684Z,7.63
2018-07-25T21:20:14.445Z,8.93
2018-07-25T21:22:44.024Z,7.23
2018-07-25T21:25:14.187Z,7.10
2018-07-25T21:27:43.087Z,8.50
2018-07-25T21:30:12.083Z,7.47
2018-07-25T21:32:59.671Z,8.10
2018-07-25T21:35:28.558Z,8.27
2018-07-25T21:37:57.454Z,7.83
2018-07-25T21:40:26.541Z,7.77
2018-07-25T21:42:55.405Z,6.90
2018-07-25T21:45:24.403Z,8.70
2018-07-25T21:47:53.340Z,8.20
2018-07-25T21:50:22.290Z,8.63
2018-07-25T21:52:51.230Z,8.17
2018-07-25T21:58:33.081Z,7.83
2018-07-25T22:01:19.490Z,8.50
2018-07-25T22:03:48.535Z,8.27
2018-07-25T22:06:17.692Z,7.77
2018-07-25T22:08:57.999Z,7.40
2018-07-25T22:11:26.861Z,8.20
2018-07-25T22:16:57.775Z,8.00
2018-07-25T22:19:33.211Z,8.27
2018-07-25T22:22:02.107Z,9.57
2018-07-25T22:24:37.519Z,8.80
2018-07-25T22:27:06.462Z,8.27
2018-07-25T22:29:35.329Z,7.83
2018-07-25T22:32:04.476Z,8.17
2018-07-25T22:34:34.534Z,7.83
2018-07-25T22:37:03.408Z,7.93
2018-07-25T22:39:32.472Z,9.43
2018-07-25T22:42:01.476Z,7.93
2018-07-25T22:44:30.536Z,7.20
2018-07-25T22:46:59.440Z,7.00
2018-07-25T22:49:46.075Z,6.93
2018-07-25T22:52:15.135Z,6.87
2018-07-25T22:54:56.912Z,8.93
2018-07-25T22:57:25.942Z,7.40
2018-07-25T22:59:58.177Z,7.40
2018-07-25T23:02:27.041Z,7.80
2018-07-25T23:04:56.211Z,9.60
2018-07-25T23:07:25.073Z,10.77
2018-07-25T23:09:58.130Z,8.37
2018-07-25T23:12:26.989Z,8.03
2018-07-25T23:14:56.235Z,8.67
2018-07-25T23:17:25.214Z,7.83
2018-07-25T23:20:01.396Z,7.17
2018-07-25T23:25:31.017Z,7.47
2018-07-25T23:28:00.453Z,8.27
2018-07-25T23:30:29.982Z,7.67
2018-07-25T23:33:22.185Z,7.50
2018-07-25T23:35:51.070Z,9.50
2018-07-25T23:38:20.033Z,11.43
2018-07-25T23:40:48.932Z,9.73
2018-07-25T23:43:17.810Z,7.77
2018-07-25T23:45:46.699Z,9.27
2018-07-25T23:48:32.514Z,7.40
2018-07-25T23:51:01.401Z,7.87
2018-07-25T23:53:30.257Z,7.90
2018-07-25T23:56:00.245Z,7.30
2018-07-25T23:58:29.122Z,9.90
